Rechercher aéroport 
image banner adimage banner adimage banner ad
image banner ad

CA47 - San Diego Police Headquarters

Situé à San Diego, United States

ICAO - CA47, IATA -

Données fournies par Airmate  

Information générale

Coordonnées: N32°42'55" W117°9'2"
Élévation : 162 feet MSL.
Variation magnétique : 13° East
Voir autres Aéroports à California

Données opérationnelles

Special qualification required
Heure actuelle UTC:
Heure actuelle locale:
Météo à : KSAN - San Diego Intl ( 4 km )
METAR: KSAN 262351Z 29008KT 10SM OVC013 23/18 A2995 RMK AO2 SLP140 T02280178 10239 20228 56008
TAF: KSAN 262112Z 2621/2724 26008KT P6SM BKN012 FM270200 VRB05KT P6SM BKN015 FM271900 27009KT P6SM SCT020
Voir NOTAMs / SUP AIP / TFR affectant cet aéroport [VIEW]
Fréquences de communication: [VIEW]

Pistes:

Coordonnées de l'aéroport

Adresse: San Diego United States

Vue satellite de CA47